Time;durP1;ratioP1;P1;durP2;ratioP2;P2;SDS_P1;SDS_P2;PMS_P1;PMS_P2;Temp;Humidity;BMP_temperature;BMP_pressure;BME280_temperature;BME280_humidity;BME280_pressure;Samples;Min_cycle;Max_cycle;Signal;HPM_P1;HPM_P2
2021/10/29 00:01:02;;;;;;;;;14.50;12.00;;;;;13.19;62.19;100129.31;5058908;28;45382;-62
2021/10/29 00:03:28;;;;;;;;;13.00;10.00;;;;;13.14;62.34;100135.09;5058128;28;57822;-61
2021/10/29 00:05:53;;;;;;;;;14.00;13.00;;;;;13.14;62.32;100131.59;5057774;28;66474;-61
2021/10/29 00:08:19;;;;;;;;;12.00;10.50;;;;;13.11;62.53;100124.00;5058516;28;45321;-61
2021/10/29 00:10:44;;;;;;;;;11.75;11.75;;;;;13.09;62.40;100118.06;5057989;28;58068;-61
2021/10/29 00:13:09;;;;;;;;;11.25;10.50;;;;;13.09;62.44;100120.72;5058421;28;45633;-61
2021/10/29 00:15:35;;;;;;;;;16.00;13.75;;;;;13.07;62.22;100113.78;5058389;28;46529;-61
2021/10/29 00:18:01;;;;;;;;;11.25;11.25;;;;;13.05;62.46;100107.84;5058350;28;45173;-60
2021/10/29 00:20:26;;;;;;;;;13.00;11.50;;;;;13.06;62.31;100106.06;5057592;28;65288;-61
2021/10/29 00:22:51;;;;;;;;;10.75;9.75;;;;;13.04;62.51;100105.38;5057064;28;66846;-61
2021/10/29 00:25:17;;;;;;;;;13.75;11.50;;;;;13.03;62.30;100101.09;5057138;28;46074;-61
2021/10/29 00:27:42;;;;;;;;;12.25;11.25;;;;;13.02;62.30;100104.72;5058073;28;45364;-61
2021/10/29 00:30:08;;;;;;;;;11.00;11.00;;;;;13.02;62.32;100110.00;5057137;28;45435;-61
2021/10/29 00:32:34;;;;;;;;;11.50;10.50;;;;;13.01;62.84;100105.72;5058275;28;45313;-61
2021/10/29 00:34:59;;;;;;;;;14.50;13.25;;;;;12.98;62.80;100114.75;5057861;28;45322;-61
2021/10/29 00:37:25;;;;;;;;;13.25;12.25;;;;;12.97;63.04;100109.66;5057994;28;45779;-61
2021/10/29 00:39:50;;;;;;;;;14.00;12.25;;;;;12.94;62.94;100110.81;5058216;28;45391;-61
2021/10/29 00:42:15;;;;;;;;;13.25;12.25;;;;;12.92;62.83;100107.53;5058020;28;45418;-61
2021/10/29 00:44:41;;;;;;;;;14.50;12.00;;;;;12.90;62.93;100096.31;5057160;28;69941;-61
2021/10/29 00:47:06;;;;;;;;;13.25;13.00;;;;;12.89;62.53;100095.47;5057539;28;58816;-61
2021/10/29 00:49:32;;;;;;;;;13.00;12.25;;;;;12.87;63.10;100097.44;5057243;28;61283;-61
2021/10/29 00:51:57;;;;;;;;;11.25;9.75;;;;;12.84;62.83;100097.75;5057188;28;59342;-61
2021/10/29 00:54:22;;;;;;;;;13.25;10.75;;;;;12.84;63.48;100091.69;5039975;28;46184;-60
2021/10/29 00:56:48;;;;;;;;;14.75;12.00;;;;;12.83;62.62;100087.38;5057630;28;50458;-61
2021/10/29 00:59:14;;;;;;;;;12.75;10.75;;;;;12.80;63.45;100088.53;5058021;28;45400;-61
2021/10/29 01:01:40;;;;;;;;;11.25;10.50;;;;;12.79;63.29;100089.50;5057620;28;45604;-61
2021/10/29 01:04:05;;;;;;;;;11.50;11.50;;;;;12.78;63.38;100077.31;5057515;28;47541;-61
2021/10/29 01:06:32;;;;;;;;;10.50;10.00;;;;;12.77;62.94;100080.94;5057582;28;45343;-60
2021/10/29 01:08:58;;;;;;;;;9.50;9.25;;;;;12.75;63.14;100082.91;5057655;28;45396;-61
2021/10/29 01:11:25;;;;;;;;;13.75;12.00;;;;;12.73;62.98;100075.19;5057470;28;45323;-61
2021/10/29 01:13:50;;;;;;;;;10.75;10.50;;;;;12.73;63.19;100083.09;5039588;28;46375;-61
2021/10/29 01:16:16;;;;;;;;;13.25;13.00;;;;;12.70;63.08;100080.78;5056530;28;65115;-61
2021/10/29 01:18:41;;;;;;;;;11.50;10.00;;;;;12.69;63.57;100075.66;5056395;28;45429;-61
2021/10/29 01:21:07;;;;;;;;;13.25;12.00;;;;;12.67;63.45;100075.81;5056544;28;68621;-61
2021/10/29 01:23:36;;;;;;;;;16.25;11.75;;;;;12.68;63.54;100077.47;5057009;28;45489;-61
2021/10/29 01:26:02;;;;;;;;;12.50;11.50;;;;;12.66;63.13;100074.16;5039431;28;45368;-61
2021/10/29 01:28:28;;;;;;;;;15.75;11.00;;;;;12.66;63.31;100073.34;5056328;28;45378;-61
2021/10/29 01:30:53;;;;;;;;;12.75;11.75;;;;;12.64;63.55;100062.97;5056687;28;56462;-61
2021/10/29 01:33:19;;;;;;;;;10.25;9.25;;;;;12.64;63.71;100070.06;5056441;28;67636;-62
2021/10/29 01:35:44;;;;;;;;;15.25;11.00;;;;;12.64;63.59;100060.31;5056419;28;61624;-61
2021/10/29 01:38:09;;;;;;;;;11.25;11.00;;;;;12.65;63.36;100050.63;5057148;28;45326;-61
2021/10/29 01:40:35;;;;;;;;;10.75;10.00;;;;;12.64;63.52;100056.88;5056204;28;65051;-61
2021/10/29 01:43:00;;;;;;;;;12.50;12.00;;;;;12.65;62.99;100045.34;5057018;28;45394;-61
2021/10/29 01:45:25;;;;;;;;;11.25;9.00;;;;;12.63;63.50;100042.03;5057006;28;45461;-60
2021/10/29 01:47:51;;;;;;;;;11.75;10.75;;;;;12.64;63.13;100047.16;5056968;28;45252;-61
2021/10/29 01:50:16;;;;;;;;;11.75;8.00;;;;;12.64;63.25;100044.50;5057002;28;45268;-61
2021/10/29 01:52:42;;;;;;;;;9.25;8.25;;;;;12.63;63.14;100036.78;5055995;28;66971;-61
2021/10/29 01:55:08;;;;;;;;;15.00;10.00;;;;;12.60;63.00;100028.22;5056672;28;45361;-61
2021/10/29 01:57:33;;;;;;;;;10.50;10.25;;;;;12.58;63.67;100035.44;5056927;28;45392;-61
2021/10/29 01:59:58;;;;;;;;;14.25;12.75;;;;;12.57;63.51;100032.97;5056883;28;45453;-61
2021/10/29 02:02:24;;;;;;;;;12.25;10.75;;;;;12.54;63.59;100034.13;5055601;28;72806;-62
2021/10/29 02:04:49;;;;;;;;;9.75;9.75;;;;;12.52;63.38;100027.34;5056727;28;45177;-61
2021/10/29 02:07:15;;;;;;;;;11.00;10.75;;;;;12.49;63.09;100025.88;5055898;28;63488;-61
2021/10/29 02:09:40;;;;;;;;;10.75;10.75;;;;;12.45;63.49;100022.72;5056739;28;45319;-61
2021/10/29 02:12:06;;;;;;;;;12.00;10.75;;;;;12.42;63.38;100022.22;5056600;28;46219;-61
2021/10/29 02:14:32;;;;;;;;;12.75;9.00;;;;;12.38;63.33;100018.25;5055794;28;45228;-62
2021/10/29 02:16:58;;;;;;;;;12.00;8.25;;;;;12.36;63.63;100017.59;5056623;28;45383;-61
2021/10/29 02:19:23;;;;;;;;;12.50;11.75;;;;;12.32;63.59;100010.00;5056534;28;45408;-60
2021/10/29 02:21:48;;;;;;;;;12.00;10.50;;;;;12.31;63.19;100016.25;5055559;28;64645;-61
2021/10/29 02:24:14;;;;;;;;;10.50;9.00;;;;;12.26;63.82;100015.91;5056100;28;45318;-61
2021/10/29 02:26:39;;;;;;;;;10.75;10.25;;;;;12.25;63.67;100016.91;5055090;28;45443;-61
2021/10/29 02:29:05;;;;;;;;;10.75;9.50;;;;;12.22;63.59;100006.69;5054961;28;45491;-61
2021/10/29 02:31:30;;;;;;;;;10.00;10.00;;;;;12.20;63.62;100000.75;5056246;28;45334;-61
2021/10/29 02:33:56;;;;;;;;;13.25;9.00;;;;;12.19;63.64;100009.63;5056360;28;45380;-61
2021/10/29 02:36:21;;;;;;;;;14.75;9.25;;;;;12.17;63.72;100009.00;5056280;28;45909;-61
2021/10/29 02:38:47;;;;;;;;;11.75;9.00;;;;;12.16;63.47;99997.63;5056398;28;45609;-61
2021/10/29 02:41:12;;;;;;;;;11.00;9.25;;;;;12.16;63.27;100000.25;5056192;28;46638;-61
2021/10/29 02:43:38;;;;;;;;;11.75;9.50;;;;;12.14;63.22;99994.31;5056216;28;45442;-60
2021/10/29 02:46:04;;;;;;;;;9.25;7.75;;;;;12.15;63.10;99992.53;5056394;28;45228;-61
2021/10/29 02:48:29;;;;;;;;;9.25;7.75;;;;;12.14;63.52;99985.63;5055691;28;55731;-61
2021/10/29 02:50:55;;;;;;;;;12.50;9.25;;;;;12.14;63.29;99988.25;5055954;28;46099;-61
2021/10/29 02:53:20;;;;;;;;;10.00;8.00;;;;;12.13;63.24;99987.41;5056207;28;45264;-61
2021/10/29 02:55:46;;;;;;;;;11.00;7.75;;;;;12.14;63.16;99977.72;5055973;28;45227;-61
2021/10/29 02:58:11;;;;;;;;;10.25;9.50;;;;;12.12;63.14;99977.03;5055938;28;45212;-61
2021/10/29 03:00:36;;;;;;;;;11.00;9.25;;;;;12.11;62.97;99980.66;5055214;28;66983;-61
2021/10/29 03:03:02;;;;;;;;;11.25;9.50;;;;;12.10;63.28;99973.75;5055791;28;45315;-61
2021/10/29 03:05:27;;;;;;;;;12.50;11.00;;;;;12.08;63.48;99971.25;5055912;28;45322;-61
2021/10/29 03:07:53;;;;;;;;;12.00;11.75;;;;;12.05;63.61;99963.69;5055354;28;58580;-61
2021/10/29 03:10:18;;;;;;;;;11.75;10.50;;;;;12.04;63.55;99963.84;5054678;28;45514;-61
2021/10/29 03:12:43;;;;;;;;;12.75;10.00;;;;;12.01;63.68;99955.28;5055742;28;45590;-61
2021/10/29 03:15:09;;;;;;;;;15.75;10.50;;;;;11.99;63.30;99953.75;5055976;28;45267;-60
2021/10/29 03:17:35;;;;;;;;;12.50;10.75;;;;;11.97;63.46;99958.34;5054588;28;45364;-61
2021/10/29 03:20:01;;;;;;;;;10.25;10.00;;;;;11.95;63.57;99950.63;5055583;28;45457;-61
2021/10/29 03:22:26;;;;;;;;;14.00;11.00;;;;;11.95;63.83;99944.53;5055727;28;45429;-60
2021/10/29 03:24:52;;;;;;;;;10.00;8.00;;;;;11.92;63.39;99945.69;5055232;28;63121;-61
2021/10/29 03:27:19;;;;;;;;;9.25;8.25;;;;;11.88;63.64;99946.97;5058957;28;45442;-60
2021/10/29 03:29:44;;;;;;;;;9.00;7.50;;;;;11.84;63.84;99938.59;5058677;28;45603;-61
2021/10/29 03:32:10;;;;;;;;;10.00;9.25;;;;;11.80;64.02;99936.41;5059162;28;45339;-61
2021/10/29 03:34:35;;;;;;;;;11.00;9.75;;;;;11.75;64.07;99931.63;5058654;28;45393;-61
2021/10/29 03:37:03;;;;;;;;;3.25;0.00;;;;;11.71;63.80;99928.47;5058523;28;58878;-61
2021/10/29 03:39:30;;;;;;;;;10.50;9.50;;;;;11.68;64.04;99926.16;5057778;28;46088;-61
2021/10/29 03:42:01;;;;;;;;;8.00;8.00;;;;;11.64;64.18;99927.50;5059022;28;45867;-61
2021/10/29 03:46:58;;;;;;;;;10.50;9.25;;;;;11.56;64.23;99916.94;5058928;28;45411;-61
2021/10/29 03:49:39;;;;;;;;;9.00;8.00;;;;;11.51;64.68;99927.91;5058724;28;46330;-60
2021/10/29 03:52:15;;;;;;;;;10.50;9.00;;;;;11.48;64.72;99922.16;5058918;28;45390;-61
2021/10/29 03:54:43;;;;;;;;;9.25;7.75;;;;;11.42;64.51;99915.69;5057663;28;45412;-61
2021/10/29 03:57:23;;;;;;;;;10.25;9.75;;;;;11.40;64.91;99918.50;5057500;28;45497;-61
2021/10/29 03:59:48;;;;;;;;;9.00;8.75;;;;;11.38;64.67;99909.13;5058759;28;46233;-61
2021/10/29 04:02:13;;;;;;;;;9.25;8.50;;;;;11.35;64.69;99907.59;5057748;28;64314;-61
2021/10/29 04:04:39;;;;;;;;;10.25;9.75;;;;;11.34;64.99;99899.88;5057606;28;45412;-61
2021/10/29 04:07:05;;;;;;;;;8.75;8.75;;;;;11.30;65.14;99899.38;5058692;28;45572;-61
2021/10/29 04:09:30;;;;;;;;;9.00;8.25;;;;;11.29;65.56;99900.34;5057759;28;68380;-61
2021/10/29 04:11:55;;;;;;;;;13.75;11.00;;;;;11.27;65.54;99892.63;5058386;28;45473;-61
2021/10/29 04:14:25;;;;;;;;;8.00;8.00;;;;;11.28;65.29;99890.81;5057508;28;45423;-61
2021/10/29 04:16:51;;;;;;;;;11.00;9.50;;;;;11.26;65.86;99887.50;5057272;28;45335;-61
2021/10/29 04:19:16;;;;;;;;;9.25;8.75;;;;;11.25;65.57;99891.13;5057767;28;65520;-61
2021/10/29 04:21:42;;;;;;;;;10.50;9.75;;;;;11.27;65.84;99891.78;5058239;28;45454;-61
2021/10/29 04:24:07;;;;;;;;;10.00;8.50;;;;;11.27;65.59;99876.00;5058367;28;45540;-61
2021/10/29 04:26:35;;;;;;;;;10.50;9.75;;;;;11.26;65.73;99867.31;5057370;28;45355;-61
2021/10/29 04:29:02;;;;;;;;;9.25;8.25;;;;;11.26;66.17;99871.72;5058131;28;46627;-61
2021/10/29 04:31:30;;;;;;;;;10.25;8.75;;;;;11.27;65.74;99868.13;5058204;28;45834;-61
2021/10/29 04:33:55;;;;;;;;;10.75;8.50;;;;;11.28;66.12;99867.13;5056875;28;45418;-60
2021/10/29 04:36:21;;;;;;;;;11.00;9.00;;;;;11.28;65.90;99862.72;5057565;28;45486;-61
2021/10/29 04:38:46;;;;;;;;;12.25;10.75;;;;;11.29;65.90;99868.78;5056533;28;55635;-60
2021/10/29 04:41:15;;;;;;;;;12.75;11.00;;;;;11.29;65.75;99863.53;5058097;28;47342;-61
2021/10/29 04:43:40;;;;;;;;;10.75;9.75;;;;;11.31;65.74;99856.31;5040314;28;45439;-60
2021/10/29 04:46:06;;;;;;;;;13.75;10.75;;;;;11.33;66.05;99861.41;5056879;28;45495;-60
2021/10/29 04:48:32;;;;;;;;;13.00;9.00;;;;;11.34;66.15;99869.13;5058008;28;45365;-60
2021/10/29 04:50:57;;;;;;;;;8.50;8.50;;;;;11.36;65.89;99863.75;5056604;28;45309;-60
2021/10/29 04:53:23;;;;;;;;;9.50;9.50;;;;;11.38;66.25;99859.16;5057957;28;45259;-61
2021/10/29 04:55:49;;;;;;;;;8.75;7.50;;;;;11.42;65.90;99856.03;5057851;28;45300;-61
2021/10/29 04:58:14;;;;;;;;;10.25;10.00;;;;;11.46;65.70;99860.97;5057815;28;46388;-61
2021/10/29 05:00:40;;;;;;;;;9.00;8.00;;;;;11.48;66.29;99859.00;5057748;28;45208;-61
2021/10/29 05:03:06;;;;;;;;;11.25;9.00;;;;;11.52;65.96;99857.72;5057943;28;45305;-61
2021/10/29 05:05:32;;;;;;;;;9.50;8.50;;;;;11.51;65.83;99856.88;5057696;28;45363;-61
2021/10/29 05:07:57;;;;;;;;;8.00;8.00;;;;;11.53;66.12;99854.91;5057405;28;45414;-60
2021/10/29 05:10:22;;;;;;;;;9.00;9.00;;;;;11.56;65.87;99845.88;5056908;28;59193;-61
2021/10/29 05:12:48;;;;;;;;;10.75;10.75;;;;;11.59;66.04;99840.31;5057372;28;45477;-61
2021/10/29 05:15:14;;;;;;;;;8.50;8.50;;;;;11.60;66.06;99841.97;5057145;28;45548;-61
2021/10/29 05:17:42;;;;;;;;;13.00;11.00;;;;;11.63;65.95;99841.63;5057141;28;45683;-61
2021/10/29 05:20:08;;;;;;;;;9.25;9.25;;;;;11.66;65.99;99833.41;5057230;28;45751;-60
2021/10/29 05:22:33;;;;;;;;;9.75;9.75;;;;;11.69;65.81;99835.72;5057530;28;45261;-60
2021/10/29 05:24:59;;;;;;;;;12.50;9.00;;;;;11.72;65.94;99822.22;5057040;28;45498;-61
2021/10/29 05:27:24;;;;;;;;;8.00;7.00;;;;;11.76;65.38;99824.53;5057206;28;46066;-61
2021/10/29 05:29:49;;;;;;;;;9.25;9.25;;;;;11.77;65.46;99820.94;5056254;28;69172;-61
2021/10/29 05:32:15;;;;;;;;;12.25;9.25;;;;;11.78;65.68;99835.72;5057204;28;45272;-61
2021/10/29 05:34:40;;;;;;;;;9.75;9.00;;;;;11.78;65.61;99823.41;5057133;28;45464;-60
2021/10/29 05:37:06;;;;;;;;;9.00;8.75;;;;;11.80;65.36;99817.97;5057062;28;46144;-61
2021/10/29 05:39:32;;;;;;;;;11.50;9.50;;;;;11.82;65.79;99813.38;5056873;28;45228;-61
2021/10/29 05:41:58;;;;;;;;;11.00;9.25;;;;;11.84;65.70;99827.19;5055962;28;45418;-61
2021/10/29 05:44:24;;;;;;;;;11.00;8.75;;;;;11.84;65.52;99811.41;5057073;28;45477;-60
2021/10/29 05:46:49;;;;;;;;;10.25;8.25;;;;;11.84;65.32;99809.59;5056792;28;45953;-61
2021/10/29 05:49:15;;;;;;;;;9.00;8.50;;;;;11.87;65.09;99805.81;5054649;28;45478;-60
2021/10/29 05:51:46;;;;;;;;;10.50;10.50;;;;;11.90;65.07;99809.94;5056763;28;45553;-60
2021/10/29 05:56:38;;;;;;;;;14.00;11.50;;;;;11.93;65.12;99805.16;5056475;28;45354;-61
2021/10/29 05:59:05;;;;;;;;;12.50;12.50;;;;;11.93;65.30;99799.91;5056719;28;45526;-61
2021/10/29 06:01:31;;;;;;;;;14.50;10.00;;;;;11.95;64.91;99792.66;5056573;28;45365;-61
2021/10/29 06:03:56;;;;;;;;;14.00;14.00;;;;;11.97;65.10;99793.31;5056805;28;45315;-61
2021/10/29 06:06:22;;;;;;;;;15.75;12.00;;;;;11.99;65.16;99803.69;5055081;28;47003;-61
2021/10/29 06:08:47;;;;;;;;;11.00;10.25;;;;;12.00;64.77;99794.81;5055075;28;52235;-60
2021/10/29 06:11:12;;;;;;;;;11.25;9.00;;;;;12.02;65.13;99798.13;5055948;28;64939;-61
2021/10/29 06:13:38;;;;;;;;;10.00;9.25;;;;;12.04;65.19;99790.06;5055927;28;62339;-61
2021/10/29 06:16:05;;;;;;;;;10.75;9.00;;;;;12.05;64.58;99782.00;5055487;28;66876;-61
2021/10/29 06:18:31;;;;;;;;;11.25;9.00;;;;;12.08;64.93;99791.38;5056345;28;45380;-61
2021/10/29 06:20:57;;;;;;;;;9.50;8.00;;;;;12.09;64.96;99799.13;5055118;28;45250;-61
2021/10/29 06:23:32;;;;;;;;;14.00;9.50;;;;;12.13;65.06;99799.63;5055967;28;45346;-60
2021/10/29 06:25:58;;;;;;;;;9.25;9.25;;;;;12.15;64.71;99792.38;5056062;28;46201;-61
2021/10/29 06:30:49;;;;;;;;;9.75;9.00;;;;;12.20;64.34;99794.50;5056432;28;45425;-61
2021/10/29 06:33:19;;;;;;;;;13.75;13.00;;;;;12.21;64.86;99791.69;5056333;28;45324;-61
2021/10/29 06:35:45;;;;;;;;;9.50;8.75;;;;;12.24;64.41;99787.94;5056247;28;45622;-61
2021/10/29 06:38:11;;;;;;;;;10.25;9.00;;;;;12.26;64.00;99781.50;5056137;28;45220;-61
2021/10/29 06:40:44;;;;;;;;;11.25;10.25;;;;;12.28;64.16;99786.59;5056332;28;45292;-61
2021/10/29 06:43:16;;;;;;;;;8.25;8.25;;;;;12.29;64.53;99783.78;5056395;28;45408;-60
2021/10/29 07:05:16;;;;;;;;;12.00;6.00;;;;;12.49;63.79;99777.34;5058478;28;45319;-61
2021/10/29 07:42:52;;;;;;;;;7.00;7.00;;;;;13.23;63.15;99773.69;5053891;28;45858;-61
2021/10/29 07:45:18;;;;;;;;;9.75;7.50;;;;;13.31;62.38;99778.91;5057889;28;45316;-61
2021/10/29 07:47:43;;;;;;;;;8.00;7.00;;;;;13.36;62.53;99780.03;5058935;28;45354;-61
2021/10/29 07:50:10;;;;;;;;;9.75;9.00;;;;;13.42;62.59;99773.25;5057486;28;47268;-60
2021/10/29 07:52:36;;;;;;;;;8.75;8.25;;;;;13.49;62.82;99787.41;5058629;28;45953;-61
2021/10/29 07:55:03;;;;;;;;;8.00;7.00;;;;;13.56;62.04;99792.81;5074145;28;45331;-60
2021/10/29 07:57:29;;;;;;;;;9.25;9.00;;;;;13.62;62.35;99796.59;5073059;28;45219;-61
2021/10/29 07:59:55;;;;;;;;;6.00;6.00;;;;;13.68;62.00;99795.06;5066840;28;46309;-61
2021/10/29 08:02:21;;;;;;;;;7.00;7.00;;;;;13.72;61.44;99797.19;5075402;27;45482;-61
2021/10/29 08:04:47;;;;;;;;;6.00;6.00;;;;;13.77;61.42;99802.78;5078090;27;45504;-61
2021/10/29 08:07:12;;;;;;;;;7.00;7.00;;;;;13.83;61.27;99795.94;5077730;28;45315;-61
2021/10/29 08:09:40;;;;;;;;;7.50;5.75;;;;;13.90;60.93;99796.06;5059625;28;45429;-61
2021/10/29 08:12:06;;;;;;;;;9.25;7.00;;;;;13.96;61.42;99798.00;5075673;27;46074;-61
2021/10/29 08:14:32;;;;;;;;;6.75;6.00;;;;;14.01;61.01;99803.56;5075392;27;45842;-61
2021/10/29 08:16:57;;;;;;;;;6.00;4.50;;;;;14.08;61.03;99788.66;5074510;28;45571;-61
2021/10/29 08:19:31;;;;;;;;;7.00;6.00;;;;;14.15;60.92;99795.88;5073251;28;63887;-61
2021/10/29 08:21:56;;;;;;;;;6.00;6.00;;;;;14.20;60.57;99796.97;5073555;27;45486;-61
2021/10/29 08:24:22;;;;;;;;;5.50;5.00;;;;;14.27;60.52;99791.00;5075538;28;45524;-61
2021/10/29 08:26:48;;;;;;;;;7.00;7.00;;;;;14.32;60.34;99792.09;5074448;28;45498;-60
2021/10/29 08:29:13;;;;;;;;;6.75;5.75;;;;;14.38;59.85;99799.28;5075559;27;46150;-61
2021/10/29 08:31:38;;;;;;;;;8.00;6.50;;;;;14.42;59.94;99794.50;5076343;27;45712;-61
2021/10/29 08:34:04;;;;;;;;;4.75;4.75;;;;;14.50;59.39;99796.22;5073317;28;60384;-62
2021/10/29 08:36:30;;;;;;;;;5.75;5.00;;;;;14.55;59.81;99799.16;5076061;27;45677;-62
2021/10/29 08:38:55;;;;;;;;;9.00;6.00;;;;;14.61;59.39;99797.59;5076210;27;45508;-61
2021/10/29 08:41:21;;;;;;;;;7.00;5.00;;;;;14.64;59.13;99794.59;5075746;27;45461;-61
2021/10/29 08:43:47;;;;;;;;;7.00;6.00;;;;;14.70;59.41;99807.13;5074382;27;45568;-61
2021/10/29 08:46:13;;;;;;;;;6.50;6.50;;;;;14.73;59.14;99800.66;5075896;28;46129;-60
2021/10/29 08:48:39;;;;;;;;;5.75;5.25;;;;;14.76;59.22;99789.72;5057393;28;45634;-61
2021/10/29 08:51:05;;;;;;;;;4.50;4.50;;;;;14.78;59.05;99799.09;5076115;27;45516;-61
2021/10/29 08:53:30;;;;;;;;;5.00;5.00;;;;;14.83;59.09;99801.22;5075615;27;46011;-61
2021/10/29 08:56:01;;;;;;;;;6.00;4.25;;;;;14.87;58.94;99794.53;5074796;28;45699;-61
2021/10/29 08:58:26;;;;;;;;;4.50;4.50;;;;;14.90;58.72;99798.66;5075234;28;45450;-61
2021/10/29 09:00:52;;;;;;;;;6.00;6.00;;;;;14.91;58.67;99801.09;5073558;27;45385;-61
2021/10/29 09:03:26;;;;;;;;;5.75;5.75;;;;;14.93;58.22;99807.03;5074682;27;45480;-61
2021/10/29 09:33:53;;;;;;;;;6.50;6.00;;;;;15.14;58.14;99795.72;5075033;27;45717;-62
2021/10/29 09:36:28;;;;;;;;;5.75;5.25;;;;;15.17;57.83;99801.66;5075359;27;45417;-61
2021/10/29 09:39:05;;;;;;;;;14.00;13.00;;;;;15.19;57.98;99804.94;5072594;28;45257;-61
2021/10/29 09:41:30;;;;;;;;;10.75;8.75;;;;;15.19;58.30;99808.41;5074126;28;45589;-61
2021/10/29 09:44:04;;;;;;;;;6.50;5.25;;;;;15.21;57.91;99805.56;5074477;28;63723;-61
2021/10/29 09:46:35;;;;;;;;;6.00;5.00;;;;;15.24;58.13;99810.50;5074655;27;45379;-62
2021/10/29 09:49:09;;;;;;;;;6.00;5.00;;;;;15.26;58.15;99805.84;5073173;28;45465;-62
2021/10/29 09:51:48;;;;;;;;;8.25;5.00;;;;;15.27;57.84;99807.47;5055879;28;46398;-62
2021/10/29 09:54:16;;;;;;;;;5.50;5.00;;;;;15.29;58.02;99802.81;5073675;27;46042;-61
2021/10/29 09:59:10;;;;;;;;;11.00;6.00;;;;;15.33;57.96;99814.69;5073728;27;45639;-60
2021/10/29 10:01:35;;;;;;;;;5.00;5.00;;;;;15.37;57.65;99815.13;5070025;27;71766;-62
2021/10/29 10:04:07;;;;;;;;;5.25;4.75;;;;;15.38;57.52;99817.59;5056278;28;45509;-61
2021/10/29 10:06:33;;;;;;;;;7.50;5.75;;;;;15.42;57.67;99815.38;5071171;28;45511;-62
2021/10/29 10:08:58;;;;;;;;;7.50;6.00;;;;;15.43;57.74;99823.16;5074709;28;45508;-62
2021/10/29 10:11:28;;;;;;;;;6.50;5.50;;;;;15.46;57.55;99818.50;5072439;28;46288;-62
2021/10/29 10:13:54;;;;;;;;;4.75;4.75;;;;;15.50;57.52;99822.41;5071318;28;45832;-61
2021/10/29 10:16:19;;;;;;;;;5.00;5.00;;;;;15.53;57.36;99822.84;5073136;28;45462;-61
2021/10/29 10:18:45;;;;;;;;;4.00;4.00;;;;;15.58;57.63;99825.75;5071166;27;64331;-61
2021/10/29 10:21:13;;;;;;;;;5.00;5.00;;;;;15.64;57.33;99833.97;5073445;28;46408;-61
2021/10/29 10:23:41;;;;;;;;;7.25;7.00;;;;;15.67;57.60;99828.31;5056079;28;45894;-62
2021/10/29 10:46:58;;;;;;;;;7.00;6.00;;;;;15.94;57.52;99823.28;5073857;28;45329;-61
2021/10/29 10:49:51;;;;;;;;;11.25;6.00;;;;;15.96;57.90;99815.97;5072872;28;45462;-61
2021/10/29 10:52:25;;;;;;;;;11.00;7.00;;;;;15.98;58.24;99824.56;5059130;28;46333;-61
2021/10/29 10:57:46;;;;;;;;;5.50;5.50;;;;;15.94;59.14;99823.28;5069224;28;45380;-63
2021/10/29 11:10:57;;;;;;;;;6.75;6.00;;;;;15.86;60.75;99806.53;5051462;28;45549;-63
2021/10/29 11:13:24;;;;;;;;;6.75;5.50;;;;;15.85;60.68;99798.75;5071442;28;46168;-62
2021/10/29 11:16:02;;;;;;;;;7.50;6.00;;;;;15.84;60.60;99803.22;5073187;28;45560;-62
2021/10/29 11:18:33;;;;;;;;;9.75;6.50;;;;;15.83;61.32;99812.19;5069415;27;45514;-61
2021/10/29 11:21:12;;;;;;;;;7.00;5.00;;;;;15.81;61.43;99829.25;5072614;28;45671;-63
2021/10/29 11:23:38;;;;;;;;;10.25;7.00;;;;;15.80;61.61;99828.44;5070325;28;46241;-63
2021/10/29 11:26:05;;;;;;;;;8.50;7.00;;;;;15.77;61.97;99818.22;5073260;27;45315;-62
2021/10/29 11:28:38;;;;;;;;;8.00;8.00;;;;;15.77;62.19;99822.69;5070642;28;45506;-62
2021/10/29 11:31:05;;;;;;;;;11.75;8.25;;;;;15.76;62.29;99821.06;5073653;28;45658;-62
2021/10/29 11:33:31;;;;;;;;;10.25;7.00;;;;;15.76;62.60;99821.06;5073569;27;46214;-62
2021/10/29 11:36:04;;;;;;;;;10.00;7.50;;;;;15.75;62.99;99820.25;5071319;28;46337;-62
2021/10/29 11:38:31;;;;;;;;;8.00;7.00;;;;;15.74;63.15;99818.59;5072280;28;45358;-61
2021/10/29 11:40:57;;;;;;;;;11.00;9.25;;;;;15.73;63.25;99819.63;5073903;28;45493;-62
2021/10/29 11:43:25;;;;;;;;;8.00;7.00;;;;;15.70;63.64;99817.34;5071990;28;46246;-61
2021/10/29 11:45:50;;;;;;;;;10.25;6.25;;;;;15.68;63.91;99806.91;5072447;27;45895;-62
2021/10/29 11:48:17;;;;;;;;;9.25;7.50;;;;;15.67;64.41;99809.75;5076776;27;45338;-62
2021/10/29 11:50:43;;;;;;;;;8.50;6.00;;;;;15.64;64.01;99802.19;5076690;27;45662;-63
2021/10/29 11:53:09;;;;;;;;;11.75;7.00;;;;;15.62;64.47;99791.81;5058236;28;45472;-62
2021/10/29 11:55:56;;;;;;;;;12.00;8.25;;;;;15.59;64.98;99786.88;5075990;28;45995;-62
2021/10/29 11:58:40;;;;;;;;;11.00;11.00;;;;;15.58;65.55;99783.41;5075314;28;45370;-62
2021/10/29 12:01:24;;;;;;;;;8.00;8.00;;;;;15.56;65.61;99785.41;5060863;28;45319;-62
2021/10/29 12:09:03;;;;;;;;;10.75;10.50;;;;;15.54;65.79;99768.88;5076533;28;45333;-60
2021/10/29 12:11:29;;;;;;;;;12.25;10.00;;;;;15.55;66.42;99769.72;5075411;27;45364;-63
2021/10/29 12:13:55;;;;;;;;;13.50;10.00;;;;;15.56;66.42;99761.59;5073902;27;46316;-63
2021/10/29 12:16:24;;;;;;;;;14.25;11.25;;;;;15.56;66.53;99764.22;5057201;28;45882;-62
2021/10/29 12:18:57;;;;;;;;;11.75;11.00;;;;;15.58;66.66;99769.34;5075258;28;45564;-62
2021/10/29 12:21:24;;;;;;;;;12.00;12.00;;;;;15.56;66.48;99748.34;5074001;27;45529;-63
2021/10/29 12:23:51;;;;;;;;;11.25;8.25;;;;;15.55;66.74;99757.28;5075592;27;46076;-63
2021/10/29 12:26:25;;;;;;;;;10.00;8.25;;;;;15.56;66.34;99766.06;5075129;28;45522;-63
2021/10/29 12:28:55;;;;;;;;;14.00;10.50;;;;;15.56;66.92;99772.16;5072801;28;45472;-63
2021/10/29 12:32:31;;;;;;;;;10.50;9.75;;;;;15.53;66.97;99775.19;5076370;28;45522;-62
2021/10/29 12:34:41;;;;;;;;;11.00;9.75;;;;;15.51;66.90;99763.16;5057931;27;47255;-62
2021/10/29 13:01:58;;;;;;;;;11.25;10.00;;;;;15.61;67.75;99731.06;5059394;28;45415;-63
2021/10/29 13:04:47;;;;;;;;;12.75;10.75;;;;;15.63;67.44;99727.22;5074764;27;45413;-63
2021/10/29 13:07:13;;;;;;;;;17.75;15.00;;;;;15.64;67.07;99723.56;5071845;28;45393;-63
2021/10/29 13:09:39;;;;;;;;;19.25;15.00;;;;;15.68;66.87;99729.31;5075831;28;45269;-63
2021/10/29 13:12:29;;;;;;;;;15.00;13.25;;;;;15.69;67.22;99721.16;5075955;27;45339;-63
2021/10/29 13:14:59;;;;;;;;;12.25;12.00;;;;;15.72;66.96;99707.53;5073153;27;45512;-62
2021/10/29 13:17:31;;;;;;;;;12.75;11.75;;;;;15.74;67.45;99715.31;5074861;28;45390;-62
2021/10/29 13:28:14;;;;;;;;;16.50;12.50;;;;;15.79;67.48;99728.81;5073251;28;45382;-61
2021/10/29 13:54:58;;;;;;;;;9.75;8.50;;;;;15.69;66.92;99787.38;5075099;28;45513;-62
2021/10/29 14:29:50;;;;;;;;;14.50;13.50;;;;;15.31;68.48;99805.28;5072859;28;45334;-63
2021/10/29 14:32:21;;;;;;;;;8.50;7.00;;;;;15.28;68.66;99809.13;5074179;28;46320;-61
2021/10/29 14:34:52;;;;;;;;;10.50;7.00;;;;;15.27;69.08;99807.47;5073659;28;46131;-62
2021/10/29 14:40:00;;;;;;;;;9.50;8.75;;;;;15.23;69.12;99800.91;5072044;27;45351;-62
2021/10/29 14:43:05;;;;;;;;;6.75;4.75;;;;;15.19;69.58;99795.19;5073322;27;46504;-62
2021/10/29 14:45:24;;;;;;;;;9.00;8.25;;;;;15.17;69.44;99791.91;5072607;28;45964;-62
2021/10/29 14:50:33;;;;;;;;;11.00;10.25;;;;;15.15;69.91;99801.84;5074023;28;45455;-61
2021/10/29 15:32:57;;;;;;;;;19.25;14.75;;;;;14.98;71.00;99809.97;5076678;28;45260;-62
2021/10/29 15:41:13;;;;;;;;;17.00;14.50;;;;;14.94;71.50;99816.63;5076302;28;45480;-60
2021/10/29 15:46:20;;;;;;;;;17.25;14.25;;;;;14.89;71.74;99799.66;5076206;27;45502;-62
2021/10/29 15:48:56;;;;;;;;;20.25;18.50;;;;;14.88;71.71;99808.59;5076348;27;46088;-61
2021/10/29 15:51:21;;;;;;;;;23.50;22.00;;;;;14.88;71.84;99787.44;5076261;27;45486;-62
2021/10/29 15:53:47;;;;;;;;;23.75;20.00;;;;;14.88;71.88;99784.81;5075149;28;45595;-63
2021/10/29 15:56:25;;;;;;;;;18.25;16.75;;;;;14.85;71.74;99783.31;5073831;28;45553;-63
2021/10/29 16:17:27;;;;;;;;;18.00;16.50;;;;;14.77;72.03;99802.75;5074546;27;45451;-61
2021/10/29 16:19:52;;;;;;;;;19.25;15.50;;;;;14.77;72.21;99815.97;5076404;28;45239;-62